Time;durP1;ratioP1;P1;durP2;ratioP2;P2;SDS_P1;SDS_P2;PMS_P1;PMS_P2;Temp;Humidity;BMP_temperature;BMP_pressure;BME280_temperature;BME280_humidity;BME280_pressure;Samples;Min_cycle;Max_cycle;Signal;HPM_P1;HPM_P2
2023/10/10 00:01:05;;;;;;;1.60;1.52;;;17.20;99.90;;;;;;5080790;28;20035;-85
2023/10/10 00:03:32;;;;;;;1.55;1.48;;;17.40;99.90;;;;;;5081236;28;20036;-85
2023/10/10 00:05:59;;;;;;;1.67;1.58;;;17.00;99.90;;;;;;5059555;28;20082;-85
2023/10/10 00:08:33;;;;;;;1.55;1.48;;;17.30;99.90;;;;;;5073503;28;20071;-85
2023/10/10 00:10:59;;;;;;;1.45;1.40;;;17.20;99.90;;;;;;5070701;28;20043;-85
2023/10/10 00:13:26;;;;;;;1.50;1.42;;;17.30;99.90;;;;;;5069704;28;20081;-85
2023/10/10 00:15:55;;;;;;;1.38;1.33;;;17.00;99.90;;;;;;5077976;28;20773;-84
2023/10/10 00:18:22;;;;;;;1.33;1.33;;;17.10;99.90;;;;;;5064925;28;20050;-84
2023/10/10 00:46:40;;;;;;;1.48;1.40;;;16.90;99.90;;;;;;5097823;28;20085;-87
2023/10/10 00:49:10;;;;;;;1.60;1.50;;;17.10;99.90;;;;;;5067291;28;20047;-86
2023/10/10 00:51:38;;;;;;;1.70;1.60;;;16.90;99.90;;;;;;5079469;28;20139;-85
2023/10/10 00:54:43;;;;;;;1.67;1.58;;;17.30;99.90;;;;;;5058925;28;20039;-85
2023/10/10 00:56:59;;;;;;;1.52;1.45;;;17.00;99.90;;;;;;5075967;28;20044;-87
2023/10/10 00:59:34;;;;;;;1.65;1.55;;;17.30;99.90;;;;;;5076597;28;20052;-87
2023/10/10 01:46:42;;;;;;;1.60;1.50;;;17.00;99.90;;;;;;5100114;27;20077;-86
2023/10/10 01:49:19;;;;;;;1.50;1.45;;;17.20;99.90;;;;;;5082599;27;20047;-85
2023/10/10 01:51:45;;;;;;;1.42;1.38;;;17.20;99.90;;;;;;5084831;28;20039;-84
2023/10/10 01:54:18;;;;;;;1.65;1.55;;;17.40;99.90;;;;;;5089281;27;20658;-84
2023/10/10 01:56:45;;;;;;;1.67;1.58;;;17.20;99.90;;;;;;5067000;28;20141;-84
2023/10/10 01:59:14;;;;;;;1.75;1.65;;;17.20;99.90;;;;;;5086185;28;20093;-86
2023/10/10 02:01:41;;;;;;;1.48;1.40;;;17.40;99.90;;;;;;5083997;27;20150;-85
2023/10/10 02:04:07;;;;;;;1.40;1.35;;;16.70;99.90;;;;;;5086367;28;20056;-84
2023/10/10 02:06:39;;;;;;;1.30;1.27;;;17.20;99.90;;;;;;5088292;28;20047;-84
2023/10/10 02:11:56;;;;;;;;;;;16.70;99.90;;;;;;5089391;28;20075;-84
2023/10/10 02:14:25;;;;;;;1.50;1.42;;;16.90;99.90;;;;;;5086367;27;19920;-84
2023/10/10 02:16:54;;;;;;;1.52;1.45;;;17.00;99.90;;;;;;5070437;28;20047;-84
2023/10/10 02:19:32;;;;;;;1.35;1.33;;;17.20;99.90;;;;;;5079154;28;20465;-84
2023/10/10 02:24:48;;;;;;;1.33;1.30;;;16.60;99.90;;;;;;5089745;28;20055;-85
2023/10/10 02:27:28;;;;;;;1.20;1.20;;;17.00;99.90;;;;;;5083077;28;20051;-85
2023/10/10 02:29:54;;;;;;;1.35;1.33;;;17.30;99.90;;;;;;5086035;28;20039;-85
2023/10/10 02:32:20;;;;;;;1.30;1.27;;;16.80;99.90;;;;;;5082505;28;20040;-85
2023/10/10 02:35:25;;;;;;;1.40;1.35;;;17.00;99.90;;;;;;5084711;28;20054;-85
2023/10/10 02:37:47;;;;;;;1.35;1.33;;;16.50;99.90;;;;;;5083891;28;20047;-85
2023/10/10 02:40:15;;;;;;;1.38;1.33;;;16.50;99.90;;;;;;5084886;28;20138;-85
2023/10/10 02:43:16;;;;;;;1.40;1.35;;;17.00;99.90;;;;;;5085149;28;20054;-85
2023/10/10 02:45:37;;;;;;;1.33;1.30;;;17.00;99.90;;;;;;5085949;28;20075;-84
2023/10/10 02:48:07;;;;;;;1.35;1.33;;;17.10;99.90;;;;;;5083676;28;20036;-85
2023/10/10 02:50:39;;;;;;;1.30;1.27;;;16.70;99.90;;;;;;5082937;28;20054;-86
2023/10/10 02:53:08;;;;;;;1.38;1.35;;;16.50;99.90;;;;;;5082798;28;20649;-84
2023/10/10 02:55:40;;;;;;;1.23;1.23;;;16.50;99.90;;;;;;5103707;28;20531;-85
2023/10/10 02:58:20;;;;;;;1.40;1.35;;;16.40;99.90;;;;;;5080954;28;20512;-84
2023/10/10 03:00:47;;;;;;;1.27;1.25;;;16.80;99.90;;;;;;5086099;28;20143;-84
2023/10/10 03:03:18;;;;;;;1.20;1.20;;;16.50;99.90;;;;;;5081426;28;20055;-84
2023/10/10 03:05:55;;;;;;;1.33;1.30;;;16.60;99.90;;;;;;5065269;28;20416;-85
2023/10/10 03:08:35;;;;;;;1.17;1.17;;;16.40;99.90;;;;;;5083128;28;20047;-84
2023/10/10 03:11:02;;;;;;;1.23;1.23;;;16.30;99.90;;;;;;5084300;28;20043;-85
2023/10/10 03:13:35;;;;;;;1.20;1.20;;;16.20;99.90;;;;;;5102278;28;20084;-85
2023/10/10 03:18:53;;;;;;;1.25;1.25;;;16.30;99.90;;;;;;5084858;28;20060;-84
2023/10/10 03:21:25;;;;;;;1.40;1.35;;;16.50;99.90;;;;;;5084549;28;20050;-84
2023/10/10 03:24:06;;;;;;;1.42;1.38;;;16.30;99.90;;;;;;5082339;28;20052;-84
2023/10/10 03:29:11;;;;;;;1.25;1.25;;;16.10;99.90;;;;;;5084365;28;20531;-84
2023/10/10 03:31:47;;;;;;;1.10;1.10;;;16.00;99.90;;;;;;5084565;28;20147;-84
2023/10/10 03:34:33;;;;;;;1.15;1.15;;;16.00;99.90;;;;;;5084989;28;20048;-84
2023/10/10 03:39:49;;;;;;;;;;;16.20;99.90;;;;;;5085775;28;20456;-84
2023/10/10 05:23:47;;;;;;;0.93;0.93;;;16.20;99.90;;;;;;5087272;28;20043;-84
2023/10/10 05:26:19;;;;;;;1.00;1.00;;;16.20;99.90;;;;;;5086336;28;20056;-83
2023/10/10 05:28:47;;;;;;;0.90;0.90;;;16.10;99.90;;;;;;5063301;28;20159;-83
2023/10/10 05:31:18;;;;;;;1.75;1.65;;;16.30;99.90;;;;;;5078919;28;20104;-84
2023/10/10 05:33:43;;;;;;;1.00;1.00;;;15.90;99.90;;;;;;5081058;28;20390;-84
2023/10/10 05:36:09;;;;;;;1.00;1.00;;;15.70;99.90;;;;;;5078776;28;20043;-84
2023/10/10 05:38:39;;;;;;;1.00;1.00;;;16.20;99.90;;;;;;5064674;28;20063;-84
2023/10/10 05:41:06;;;;;;;1.10;1.10;;;16.00;99.90;;;;;;5084226;28;20198;-84
2023/10/10 05:43:36;;;;;;;1.10;1.10;;;15.90;99.90;;;;;;5064584;28;20047;-84
2023/10/10 05:46:05;;;;;;;1.08;1.08;;;15.50;99.90;;;;;;5066220;28;20185;-84
2023/10/10 05:48:35;;;;;;;1.20;1.20;;;15.60;99.90;;;;;;5083635;28;20051;-84
2023/10/10 05:51:03;;;;;;;1.00;1.00;;;16.10;99.90;;;;;;5084858;28;20124;-84
2023/10/10 05:53:33;;;;;;;1.05;1.05;;;16.00;99.90;;;;;;5086328;28;20420;-84
2023/10/10 05:55:59;;;;;;;1.00;1.00;;;15.80;99.90;;;;;;5086015;28;20055;-83
2023/10/10 05:58:26;;;;;;;1.20;1.20;;;15.30;99.90;;;;;;5084003;28;20143;-85
2023/10/10 06:00:53;;;;;;;1.23;1.23;;;15.60;99.90;;;;;;5086116;28;20043;-84
2023/10/10 06:03:21;;;;;;;1.20;1.20;;;15.50;99.90;;;;;;5067841;28;20061;-84
2023/10/10 06:05:49;;;;;;;1.35;1.35;;;15.30;99.90;;;;;;5087817;28;20058;-84
2023/10/10 06:08:16;;;;;;;1.23;1.23;;;16.10;99.90;;;;;;5087786;28;20055;-85
2023/10/10 06:10:42;;;;;;;1.23;1.23;;;15.80;99.90;;;;;;5088709;28;20067;-85
2023/10/10 06:13:10;;;;;;;1.13;1.13;;;16.10;99.90;;;;;;5085800;28;20054;-84
2023/10/10 06:15:36;;;;;;;1.15;1.15;;;16.20;99.90;;;;;;5088840;28;20104;-84
2023/10/10 06:18:12;;;;;;;1.15;1.15;;;16.20;99.90;;;;;;5085916;28;20071;-84
2023/10/10 06:20:42;;;;;;;1.23;1.23;;;15.90;99.90;;;;;;5069906;28;20043;-84
2023/10/10 06:23:15;;;;;;;1.27;1.27;;;16.10;99.90;;;;;;5087761;28;20135;-84
2023/10/10 06:25:42;;;;;;;1.20;1.20;;;16.10;99.90;;;;;;5086899;28;20040;-83
2023/10/10 06:28:22;;;;;;;1.33;1.33;;;16.10;99.90;;;;;;5088526;28;20321;-85
2023/10/10 06:30:55;;;;;;;1.20;1.20;;;15.60;99.90;;;;;;5085971;28;20118;-84
2023/10/10 06:33:29;;;;;;;1.10;1.10;;;15.70;99.90;;;;;;5085720;28;20040;-84
2023/10/10 06:41:36;;;;;;;1.25;1.25;;;16.40;99.90;;;;;;5087689;28;20047;-84
2023/10/10 06:44:05;;;;;;;1.13;1.13;;;16.10;99.90;;;;;;5087442;28;20511;-83
2023/10/10 06:46:37;;;;;;;0.90;0.90;;;16.20;99.90;;;;;;5086694;28;20046;-85
2023/10/10 06:49:06;;;;;;;0.90;0.90;;;16.90;99.90;;;;;;5085697;28;20077;-84
2023/10/10 06:51:41;;;;;;;0.90;0.90;;;16.30;99.90;;;;;;5086123;28;20679;-84
2023/10/10 06:54:19;;;;;;;0.90;0.90;;;17.00;99.90;;;;;;5067147;28;20062;-85
2023/10/10 06:57:04;;;;;;;0.90;0.90;;;17.10;99.90;;;;;;5087064;28;20044;-85
2023/10/10 06:59:31;;;;;;;0.80;0.80;;;17.20;99.90;;;;;;5086312;28;20655;-82
2023/10/10 07:01:59;;;;;;;0.77;0.77;;;16.80;99.90;;;;;;5085892;28;20062;-84
2023/10/10 07:04:27;;;;;;;0.90;0.90;;;17.30;99.90;;;;;;5088380;28;20039;-85
2023/10/10 07:06:55;;;;;;;0.73;0.73;;;17.00;99.90;;;;;;5087951;28;20040;-86
2023/10/10 07:09:30;;;;;;;0.80;0.80;;;16.80;99.90;;;;;;5086387;28;20052;-82
2023/10/10 07:12:02;;;;;;;0.80;0.80;;;16.90;99.90;;;;;;5087285;28;20039;-82
2023/10/10 07:14:28;;;;;;;0.80;0.80;;;17.50;99.90;;;;;;5087532;28;20147;-85
2023/10/10 07:16:56;;;;;;;0.70;0.70;;;17.40;99.90;;;;;;5087221;28;20572;-86
2023/10/10 07:19:30;;;;;;;0.75;0.75;;;17.40;99.90;;;;;;5087961;28;20047;-86
2023/10/10 07:21:57;;;;;;;0.70;0.70;;;17.00;99.90;;;;;;5085302;28;20047;-83
2023/10/10 07:24:28;;;;;;;0.70;0.70;;;17.80;99.90;;;;;;5084990;28;20037;-87
2023/10/10 07:27:10;;;;;;;0.90;0.90;;;17.30;99.90;;;;;;5086264;28;20051;-88
2023/10/10 07:32:17;;;;;;;1.15;1.15;;;17.40;99.90;;;;;;5084076;28;20048;-84
2023/10/10 07:34:49;;;;;;;0.95;0.95;;;17.30;99.90;;;;;;5087057;28;20066;-84
2023/10/10 07:37:16;;;;;;;0.95;0.95;;;18.00;99.90;;;;;;5085357;28;20035;-86
2023/10/10 07:42:30;;;;;;;;;;;17.60;99.90;;;;;;5090042;28;20055;-89
2023/10/10 07:45:13;;;;;;;1.02;1.02;;;18.10;99.90;;;;;;5092180;28;19981;-88
2023/10/10 07:50:35;;;;;;;1.00;1.00;;;17.70;99.90;;;;;;5089959;28;20044;-91
2023/10/10 07:53:06;;;;;;;0.95;0.95;;;18.10;99.90;;;;;;5070840;28;20039;-91
2023/10/10 07:55:59;;;;;;;0.90;0.90;;;17.90;99.90;;;;;;5086914;28;20130;-86
2023/10/10 07:58:27;;;;;;;1.00;1.00;;;17.40;99.90;;;;;;5085907;28;20044;-90
2023/10/10 08:01:08;;;;;;;0.90;0.90;;;17.90;99.90;;;;;;5073024;28;20039;-90
2023/10/10 08:03:34;;;;;;;0.93;0.93;;;17.80;99.90;;;;;;5069398;28;20040;-91
2023/10/10 08:06:00;;;;;;;0.85;0.85;;;17.50;99.90;;;;;;5071831;28;20257;-92
2023/10/10 08:08:27;;;;;;;0.90;0.90;;;18.10;99.90;;;;;;5081256;28;20122;-88
2023/10/10 08:10:52;;;;;;;0.90;0.90;;;17.30;99.90;;;;;;5065566;28;20044;-82
2023/10/10 08:13:20;;;;;;;0.90;0.90;;;17.50;99.90;;;;;;5084972;28;20052;-85
2023/10/10 08:21:22;;;;;;;1.00;1.00;;;17.80;99.90;;;;;;5086510;28;20056;-95
2023/10/10 08:23:50;;;;;;;1.10;1.10;;;17.20;99.90;;;;;;5089515;28;20432;-95
2023/10/10 08:26:28;;;;;;;0.90;0.90;;;17.50;99.90;;;;;;5083113;28;20135;-89
2023/10/10 08:28:55;;;;;;;0.90;0.90;;;17.50;99.90;;;;;;5071276;28;20047;-92
2023/10/10 08:31:24;;;;;;;0.80;0.80;;;17.20;99.90;;;;;;5076372;28;20184;-88
2023/10/10 08:33:55;;;;;;;1.00;1.00;;;18.00;99.90;;;;;;5077588;28;20506;-92
2023/10/10 08:36:24;;;;;;;0.90;0.90;;;17.60;99.90;;;;;;5076140;28;20082;-86
2023/10/10 08:38:58;;;;;;;0.80;0.80;;;18.10;99.90;;;;;;5092047;28;20055;-92
2023/10/10 08:41:44;;;;;;;0.80;0.80;;;17.60;99.90;;;;;;5072112;28;20050;-92
2023/10/10 08:44:11;;;;;;;0.80;0.80;;;17.50;99.90;;;;;;5075000;28;20112;-94
2023/10/10 08:46:58;;;;;;;0.75;0.75;;;17.80;99.90;;;;;;5073276;28;20088;-87
2023/10/10 08:49:27;;;;;;;0.80;0.80;;;18.20;99.90;;;;;;5088726;28;20592;-92
2023/10/10 08:52:00;;;;;;;0.80;0.80;;;18.00;99.90;;;;;;5092051;28;20043;-93
2023/10/10 08:54:26;;;;;;;0.77;0.77;;;18.20;99.90;;;;;;5073659;28;20611;-89
2023/10/10 08:57:21;;;;;;;0.80;0.80;;;18.20;99.90;;;;;;5076224;28;20088;-90
2023/10/10 08:59:42;;;;;;;0.82;0.82;;;18.20;99.90;;;;;;5085813;28;20508;-84
2023/10/10 09:02:16;;;;;;;0.85;0.85;;;17.90;99.90;;;;;;5089168;28;20054;-87
2023/10/10 09:04:42;;;;;;;0.75;0.75;;;18.30;99.90;;;;;;5088432;28;20471;-87
2023/10/10 09:10:04;;;;;;;1.08;0.75;;;18.10;99.90;;;;;;5088466;28;20051;-85
2023/10/10 09:12:34;;;;;;;0.93;0.93;;;18.30;99.90;;;;;;5090084;28;20058;-90
2023/10/10 09:15:16;;;;;;;0.80;0.80;;;18.70;99.90;;;;;;5074262;28;20040;-93
2023/10/10 09:17:42;;;;;;;0.73;0.73;;;19.10;99.90;;;;;;5075709;28;20047;-89
2023/10/10 09:20:23;;;;;;;0.80;0.80;;;19.10;99.90;;;;;;5076817;28;20043;-94
2023/10/10 09:22:52;;;;;;;0.80;0.80;;;19.20;99.90;;;;;;5093365;28;20040;-94
2023/10/10 09:25:30;;;;;;;0.80;0.80;;;19.30;99.90;;;;;;5095246;28;20280;-88
2023/10/10 09:28:08;;;;;;;0.80;0.80;;;19.20;99.90;;;;;;5073556;28;20082;-91
2023/10/10 09:30:49;;;;;;;0.80;0.80;;;19.40;99.90;;;;;;5097087;28;20116;-95
2023/10/10 09:33:33;;;;;;;0.80;0.80;;;19.40;99.90;;;;;;5092316;28;20691;-95
2023/10/10 09:37:07;;;;;;;0.75;0.75;;;19.30;99.90;;;;;;5091192;28;20051;-94
2023/10/10 09:39:08;;;;;;;0.80;0.80;;;19.50;99.90;;;;;;5080279;28;20052;-90
2023/10/10 09:45:16;;;;;;;0.70;0.70;;;19.50;99.90;;;;;;5093531;28;20511;-93
2023/10/10 09:48:05;;;;;;;0.80;0.80;;;19.60;99.90;;;;;;5089171;28;20052;-86
2023/10/10 09:53:19;;;;;;;0.70;0.70;;;19.50;99.90;;;;;;5048606;28;20050;-91
2023/10/10 09:55:47;;;;;;;0.73;0.73;;;19.80;99.90;;;;;;5087865;28;20412;-88
2023/10/10 10:00:52;;;;;;;1.00;1.00;;;20.20;99.90;;;;;;5106994;28;20045;-91
2023/10/10 10:06:40;;;;;;;0.80;0.80;;;20.20;99.90;;;;;;5090948;28;20126;-92
2023/10/10 10:09:32;;;;;;;0.90;0.90;;;20.10;99.90;;;;;;5089357;28;20036;-91
2023/10/10 10:12:30;;;;;;;0.77;0.77;;;20.30;99.90;;;;;;5071966;28;20066;-90
2023/10/10 10:15:15;;;;;;;0.73;0.73;;;20.30;99.90;;;;;;5072082;28;20122;-84
2023/10/10 10:17:56;;;;;;;0.80;0.80;;;20.40;99.90;;;;;;5086195;28;20096;-86
2023/10/10 10:20:45;;;;;;;0.73;0.73;;;20.60;99.90;;;;;;5090799;28;20063;-87
2023/10/10 10:23:25;;;;;;;0.73;0.73;;;20.70;99.90;;;;;;5086586;28;20051;-93
2023/10/10 10:28:56;;;;;;;0.77;0.77;;;21.00;99.90;;;;;;5069293;28;20071;-90
2023/10/10 10:31:37;;;;;;;0.82;0.82;;;21.00;99.90;;;;;;5090230;28;20086;-93
2023/10/10 10:34:23;;;;;;;0.80;0.80;;;21.00;99.90;;;;;;5089448;28;20055;-88
2023/10/10 10:36:55;;;;;;;0.82;0.82;;;21.10;99.90;;;;;;5087750;28;20072;-90
2023/10/10 10:39:33;;;;;;;0.82;0.82;;;21.00;99.90;;;;;;5087968;28;20051;-88
2023/10/10 10:42:34;;;;;;;0.77;0.77;;;21.20;99.90;;;;;;5112482;27;20421;-90
2023/10/10 10:45:38;;;;;;;0.80;0.80;;;21.40;99.90;;;;;;5065574;28;20470;-90
2023/10/10 10:48:07;;;;;;;0.77;0.77;;;21.40;99.90;;;;;;5078224;28;20134;-84
2023/10/10 10:50:42;;;;;;;0.80;0.80;;;21.50;99.90;;;;;;5104813;28;20142;-88
2023/10/10 10:53:30;;;;;;;0.82;0.82;;;21.60;99.90;;;;;;5073684;28;20136;-92
2023/10/10 11:01:17;;;;;;;0.85;0.85;;;22.00;99.90;;;;;;5087801;28;20036;-91
2023/10/10 11:03:55;;;;;;;0.98;0.98;;;22.10;99.90;;;;;;5091315;28;20051;-86
2023/10/10 11:06:24;;;;;;;0.93;0.93;;;22.30;99.90;;;;;;5092397;28;20154;-92
2023/10/10 11:14:15;;;;;;;1.30;1.27;;;22.40;99.90;;;;;;5085821;28;20055;-89
2023/10/10 11:16:45;;;;;;;1.60;1.50;;;22.50;99.90;;;;;;5072144;28;20051;-84
2023/10/10 11:22:12;;;;;;;1.02;1.02;;;22.90;99.90;;;;;;5069980;28;20039;-91
2023/10/10 11:24:57;;;;;;;1.38;1.33;;;23.10;99.90;;;;;;5069998;28;20055;-92
2023/10/10 11:27:29;;;;;;;1.40;1.35;;;23.10;99.90;;;;;;5060733;28;20062;-94
2023/10/10 11:30:00;;;;;;;1.02;1.02;;;22.90;99.90;;;;;;5070280;28;20072;-90
2023/10/10 11:32:47;;;;;;;1.23;1.23;;;22.90;99.90;;;;;;5083569;28;20040;-89
2023/10/10 11:35:26;;;;;;;1.08;1.08;;;23.00;99.90;;;;;;5073268;28;20127;-84
2023/10/10 11:38:10;;;;;;;1.48;1.38;;;23.20;99.90;;;;;;5068981;28;20047;-88
2023/10/10 11:40:52;;;;;;;0.90;0.90;;;23.00;99.90;;;;;;5070115;28;20094;-91
2023/10/10 11:43:19;;;;;;;0.82;0.82;;;22.90;99.90;;;;;;5055809;28;20087;-91
2023/10/10 11:45:53;;;;;;;0.90;0.90;;;23.20;99.90;;;;;;5067699;28;20059;-84
2023/10/10 11:48:19;;;;;;;0.75;0.75;;;23.50;99.90;;;;;;5093743;28;20109;-84
2023/10/10 11:50:49;;;;;;;0.70;0.70;;;23.70;99.90;;;;;;5057564;28;20431;-89
2023/10/10 11:53:54;;;;;;;1.20;1.20;;;23.90;99.90;;;;;;5059200;28;20037;-94
2023/10/10 11:56:24;;;;;;;;;;;23.70;99.90;;;;;;5054979;28;20060;-87
2023/10/10 11:58:59;;;;;;;1.63;1.52;;;23.70;99.90;;;;;;5041232;28;20300;-85
2023/10/10 12:01:49;;;;;;;1.17;1.17;;;23.80;99.90;;;;;;5044200;28;20040;-93
2023/10/10 12:04:31;;;;;;;1.15;1.15;;;23.80;99.90;;;;;;5064955;28;20602;-91
2023/10/10 12:07:02;;;;;;;1.25;1.25;;;23.80;99.90;;;;;;5052088;28;20036;-85
2023/10/10 12:09:28;;;;;;;1.55;1.45;;;23.90;99.90;;;;;;5053030;28;20048;-92
2023/10/10 12:11:59;;;;;;;1.13;1.13;;;24.10;99.90;;;;;;5044955;28;20043;-83
2023/10/10 12:14:32;;;;;;;1.90;1.80;;;23.90;99.90;;;;;;5039928;28;20043;-91
2023/10/10 12:16:59;;;;;;;0.40;0.40;;;23.90;99.90;;;;;;5048730;28;20838;-85
2023/10/10 12:19:28;;;;;;;1.98;1.88;;;24.10;99.90;;;;;;5049070;28;20044;-85
2023/10/10 12:21:58;;;;;;;0.40;0.40;;;24.30;99.90;;;;;;5051794;28;20099;-84
2023/10/10 12:24:23;;;;;;;1.63;1.52;;;24.30;99.90;;;;;;5054276;28;20079;-84
2023/10/10 12:26:54;;;;;;;1.20;1.20;;;24.00;99.90;;;;;;5052794;28;20118;-84
2023/10/10 12:29:25;;;;;;;0.43;0.43;;;23.70;99.90;;;;;;5036274;28;20052;-93
2023/10/10 12:31:55;;;;;;;0.68;0.68;;;23.40;99.90;;;;;;5039533;28;20076;-90
2023/10/10 12:34:23;;;;;;;1.70;1.60;;;23.30;99.90;;;;;;5037889;28;20044;-88
2023/10/10 12:36:59;;;;;;;1.10;0.40;;;23.40;99.90;;;;;;5038781;28;20084;-90
2023/10/10 12:39:39;;;;;;;1.42;1.38;;;23.30;99.90;;;;;;5046369;28;20040;-92
2023/10/10 12:42:07;;;;;;;2.03;1.92;;;23.30;99.90;;;;;;5036850;28;20040;-88
2023/10/10 12:44:34;;;;;;;0.82;0.82;;;23.40;99.90;;;;;;5045805;28;20048;-88
2023/10/10 12:47:06;;;;;;;0.98;0.98;;;23.60;99.90;;;;;;5031791;28;20054;-84
2023/10/10 12:49:36;;;;;;;1.08;1.08;;;23.80;99.90;;;;;;5058655;28;20062;-87
2023/10/10 12:52:11;;;;;;;0.30;0.30;;;23.70;99.90;;;;;;5048614;28;20505;-84
2023/10/10 12:54:37;;;;;;;1.05;1.05;;;23.60;99.90;;;;;;5034117;28;20493;-85
2023/10/10 12:57:06;;;;;;;0.98;0.98;;;23.90;99.90;;;;;;5038801;28;20059;-90
2023/10/10 12:59:33;;;;;;;0.93;0.93;;;23.70;99.90;;;;;;5040572;28;20048;-87
2023/10/10 13:02:08;;;;;;;0.82;0.82;;;23.20;99.90;;;;;;5037629;28;20115;-82
2023/10/10 13:04:36;;;;;;;1.05;1.05;;;23.00;99.90;;;;;;5053762;28;20080;-85
2023/10/10 13:07:04;;;;;;;0.50;0.50;;;22.80;99.90;;;;;;5034536;28;20062;-87
2023/10/10 13:09:31;;;;;;;1.40;1.35;;;22.60;99.90;;;;;;5048434;28;20051;-82
2023/10/10 13:11:57;;;;;;;1.10;1.10;;;22.50;99.90;;;;;;5047882;28;20047;-83
2023/10/10 13:14:25;;;;;;;0.98;0.98;;;22.50;99.90;;;;;;5047337;28;20060;-82
2023/10/10 13:17:05;;;;;;;1.00;1.00;;;22.50;99.90;;;;;;5048395;28;20137;-84
2023/10/10 13:19:32;;;;;;;1.30;1.20;;;22.40;99.90;;;;;;5034314;28;20409;-83
2023/10/10 13:21:58;;;;;;;0.60;0.60;;;22.20;99.90;;;;;;5065864;28;20051;-82
2023/10/10 13:24:27;;;;;;;0.50;0.50;;;22.20;99.90;;;;;;5073096;28;20045;-82
2023/10/10 13:26:52;;;;;;;0.70;0.70;;;22.10;99.90;;;;;;5050939;28;20083;-84
2023/10/10 13:29:18;;;;;;;0.60;0.60;;;22.10;99.90;;;;;;5051638;28;20052;-83
2023/10/10 13:31:44;;;;;;;0.60;0.60;;;22.00;99.90;;;;;;5051875;28;20115;-82
2023/10/10 13:34:22;;;;;;;0.88;0.88;;;22.00;99.90;;;;;;5053977;28;20047;-87
2023/10/10 13:36:51;;;;;;;0.77;0.77;;;21.90;99.90;;;;;;5051492;28;20051;-87
2023/10/10 13:39:33;;;;;;;0.75;0.75;;;21.80;99.90;;;;;;5055447;28;20064;-86
2023/10/10 13:41:59;;;;;;;0.98;0.98;;;21.80;99.90;;;;;;5068980;28;20249;-83
2023/10/10 13:44:25;;;;;;;0.80;0.80;;;21.70;99.90;;;;;;5072560;28;20041;-81
2023/10/10 13:46:52;;;;;;;1.00;1.00;;;21.70;99.90;;;;;;5047554;28;20055;-86
2023/10/10 13:49:18;;;;;;;1.10;1.10;;;21.70;99.90;;;;;;5054410;28;20414;-87
2023/10/10 13:51:51;;;;;;;1.00;1.00;;;21.70;99.90;;;;;;5039721;28;20043;-92
2023/10/10 13:54:19;;;;;;;1.10;1.10;;;21.70;99.90;;;;;;5056089;28;20079;-84
2023/10/10 13:56:45;;;;;;;1.10;1.10;;;21.90;99.90;;;;;;5051628;28;20059;-82
2023/10/10 13:59:12;;;;;;;1.17;1.17;;;22.00;99.90;;;;;;5037352;28;20040;-84
2023/10/10 14:01:39;;;;;;;1.20;1.20;;;22.10;99.90;;;;;;5047373;28;20041;-82
2023/10/10 14:04:24;;;;;;;1.08;1.08;;;22.10;99.90;;;;;;5049647;28;20107;-84
2023/10/10 14:06:50;;;;;;;1.00;1.00;;;21.90;99.90;;;;;;5042914;28;20123;-84
2023/10/10 14:09:24;;;;;;;1.10;1.10;;;21.90;99.90;;;;;;5056479;28;20103;-84
2023/10/10 14:11:50;;;;;;;;;;;21.90;99.90;;;;;;5053224;28;20048;-84
2023/10/10 14:14:16;;;;;;;1.00;1.00;;;21.80;99.90;;;;;;5046571;28;20317;-85
2023/10/10 14:16:42;;;;;;;1.00;1.00;;;21.70;99.90;;;;;;5059937;28;20040;-88
2023/10/10 14:19:07;;;;;;;0.90;0.90;;;21.70;99.90;;;;;;5048758;28;20048;-87
2023/10/10 14:21:38;;;;;;;1.00;1.00;;;21.70;99.90;;;;;;5028020;28;20079;-81
2023/10/10 14:24:05;;;;;;;1.10;1.10;;;21.70;99.90;;;;;;5049650;28;20052;-83
2023/10/10 14:26:36;;;;;;;1.10;1.10;;;21.60;99.90;;;;;;5048117;28;20051;-91
2023/10/10 14:29:06;;;;;;;1.00;1.00;;;21.60;99.90;;;;;;5030507;28;20090;-83
2023/10/10 14:31:34;;;;;;;1.02;1.02;;;21.40;99.90;;;;;;5044846;28;20054;-83
2023/10/10 14:34:01;;;;;;;1.00;1.00;;;21.40;99.90;;;;;;5043725;28;20055;-82
2023/10/10 14:36:30;;;;;;;0.90;0.90;;;21.40;99.90;;;;;;5077759;28;20132;-81
2023/10/10 14:38:59;;;;;;;0.80;0.80;;;21.30;99.90;;;;;;5053537;28;20039;-83
2023/10/10 14:41:32;;;;;;;0.90;0.90;;;21.30;99.90;;;;;;5042563;28;20045;-82
2023/10/10 14:44:01;;;;;;;0.80;0.80;;;21.40;99.90;;;;;;5044530;28;20127;-86
2023/10/10 14:46:31;;;;;;;1.00;1.00;;;21.40;99.90;;;;;;5040541;28;20045;-86
2023/10/10 14:49:18;;;;;;;1.00;1.00;;;21.30;99.90;;;;;;5048761;28;20098;-86
2023/10/10 14:51:50;;;;;;;0.90;0.90;;;21.30;99.90;;;;;;5032217;28;20032;-85
2023/10/10 14:54:19;;;;;;;0.80;0.80;;;21.40;99.90;;;;;;5050054;28;20126;-84
2023/10/10 14:56:46;;;;;;;0.90;0.90;;;21.30;99.90;;;;;;5048861;28;20592;-84
2023/10/10 14:59:17;;;;;;;0.90;0.90;;;21.30;99.90;;;;;;5047704;28;20044;-83
2023/10/10 15:01:50;;;;;;;1.00;1.00;;;21.30;99.90;;;;;;5038820;28;20746;-83
2023/10/10 15:04:21;;;;;;;0.80;0.80;;;21.20;99.90;;;;;;5054218;28;20501;-82
2023/10/10 15:06:56;;;;;;;0.80;0.80;;;21.20;99.90;;;;;;5048211;28;20068;-84
2023/10/10 15:09:25;;;;;;;0.80;0.80;;;21.10;99.90;;;;;;5039203;28;20052;-86
2023/10/10 15:11:58;;;;;;;0.80;0.80;;;21.10;99.90;;;;;;5059783;28;20051;-84
2023/10/10 15:14:25;;;;;;;0.80;0.80;;;21.00;99.90;;;;;;5032557;28;20083;-84
2023/10/10 15:16:51;;;;;;;0.80;0.80;;;21.00;99.90;;;;;;5047499;28;20051;-86
2023/10/10 15:19:17;;;;;;;0.80;0.80;;;21.00;99.90;;;;;;5044644;28;20048;-83
2023/10/10 15:21:48;;;;;;;0.90;0.90;;;20.90;99.90;;;;;;5076432;28;20179;-84
2023/10/10 15:24:15;;;;;;;0.80;0.80;;;20.80;99.90;;;;;;5068464;28;20127;-82
2023/10/10 15:26:47;;;;;;;0.80;0.80;;;20.80;99.90;;;;;;5054316;28;20143;-83
2023/10/10 15:29:17;;;;;;;0.80;0.80;;;20.80;99.90;;;;;;5046177;28;20052;-81
2023/10/10 15:31:44;;;;;;;1.58;1.10;;;20.70;99.90;;;;;;5064267;28;20123;-81
2023/10/10 15:34:11;;;;;;;0.80;0.80;;;20.60;99.90;;;;;;5065242;28;20125;-82
2023/10/10 15:36:38;;;;;;;0.70;0.70;;;20.60;99.90;;;;;;5065792;28;20079;-82
2023/10/10 15:39:06;;;;;;;0.80;0.80;;;20.50;99.90;;;;;;5049082;28;20084;-82
2023/10/10 15:41:36;;;;;;;0.70;0.70;;;20.50;99.90;;;;;;5065167;28;20044;-85
2023/10/10 15:44:03;;;;;;;0.60;0.60;;;20.40;99.90;;;;;;5046631;28;20106;-84
2023/10/10 15:46:35;;;;;;;0.60;0.60;;;20.40;99.90;;;;;;5063123;28;20056;-82
2023/10/10 15:49:03;;;;;;;0.60;0.60;;;20.30;99.90;;;;;;5047525;28;20084;-87
2023/10/10 15:51:38;;;;;;;0.60;0.60;;;20.30;99.90;;;;;;5047685;28;20052;-85
2023/10/10 15:54:09;;;;;;;0.60;0.60;;;20.20;99.90;;;;;;5052688;28;20406;-82
2023/10/10 15:56:37;;;;;;;0.60;0.60;;;20.20;99.90;;;;;;5042104;28;20048;-83
2023/10/10 15:59:03;;;;;;;0.60;0.60;;;20.10;99.90;;;;;;5063770;28;20102;-83
2023/10/10 16:01:31;;;;;;;0.60;0.60;;;20.10;99.90;;;;;;5045293;28;20048;-84
2023/10/10 16:04:12;;;;;;;0.60;0.60;;;20.00;99.90;;;;;;5034414;28;20147;-81
2023/10/10 16:06:39;;;;;;;0.70;0.70;;;20.00;99.90;;;;;;5054850;28;20115;-84
2023/10/10 16:11:54;;;;;;;0.60;0.60;;;19.90;99.90;;;;;;5045325;28;20611;-83
2023/10/10 16:14:20;;;;;;;0.60;0.60;;;19.90;99.90;;;;;;5046706;28;20089;-81
2023/10/10 16:16:47;;;;;;;0.60;0.60;;;19.90;99.90;;;;;;5047604;28;20048;-83
2023/10/10 16:19:25;;;;;;;0.60;0.60;;;19.80;99.90;;;;;;5044218;28;20049;-84
2023/10/10 16:21:55;;;;;;;0.60;0.60;;;19.70;99.90;;;;;;5066306;28;20048;-82
2023/10/10 16:24:24;;;;;;;0.60;0.60;;;19.70;99.90;;;;;;5050840;28;20603;-85
2023/10/10 16:26:56;;;;;;;0.60;0.60;;;19.70;99.90;;;;;;5034681;28;20051;-83
2023/10/10 16:29:22;;;;;;;0.60;0.60;;;19.60;99.90;;;;;;5049892;28;20477;-82
2023/10/10 16:31:48;;;;;;;0.60;0.60;;;19.50;99.90;;;;;;5032096;28;20075;-86
2023/10/10 16:34:16;;;;;;;0.60;0.60;;;19.40;99.90;;;;;;5060256;28;20071;-82
2023/10/10 16:36:47;;;;;;;0.60;0.60;;;19.30;99.90;;;;;;5066180;28;20040;-84
2023/10/10 16:39:13;;;;;;;0.70;0.70;;;19.20;99.90;;;;;;5077394;28;20460;-93
2023/10/10 16:41:42;;;;;;;0.70;0.70;;;19.20;99.90;;;;;;5034873;28;20059;-83
2023/10/10 16:44:12;;;;;;;0.70;0.70;;;19.20;99.90;;;;;;5049096;28;20040;-88
2023/10/10 16:46:38;;;;;;;0.68;0.68;;;19.20;99.90;;;;;;5049897;28;20126;-87
2023/10/10 16:49:05;;;;;;;0.70;0.70;;;19.10;99.90;;;;;;5036723;28;20041;-92
2023/10/10 16:51:31;;;;;;;0.70;0.70;;;18.90;99.90;;;;;;5030713;28;20155;-88
2023/10/10 16:53:58;;;;;;;0.70;0.70;;;19.00;99.90;;;;;;5034286;28;20145;-88
2023/10/10 16:56:27;;;;;;;0.70;0.70;;;18.90;99.90;;;;;;5050593;28;20044;-87
2023/10/10 16:58:52;;;;;;;0.60;0.60;;;18.90;99.90;;;;;;5038073;28;20111;-87
2023/10/10 17:01:22;;;;;;;0.70;0.70;;;18.90;99.90;;;;;;5057378;28;20538;-89
2023/10/10 17:03:54;;;;;;;0.70;0.70;;;18.90;99.90;;;;;;5047967;28;20045;-85
2023/10/10 17:06:22;;;;;;;1.08;0.98;;;18.80;99.90;;;;;;5056951;28;20051;-85
2023/10/10 17:08:56;;;;;;;0.60;0.60;;;18.90;99.90;;;;;;5049648;28;20044;-93
2023/10/10 17:11:23;;;;;;;0.63;0.63;;;18.80;99.90;;;;;;5059050;28;20461;-86